sensor_id;sensor_type;location;lat;lon;timestamp;P1;durP1;ratioP1;P2;durP2;ratioP2
75400;SDS011;63974;47.538;18.972;2024-02-04T00:02:41;7.32;;;4.60;;
75400;SDS011;63974;47.538;18.972;2024-02-04T00:05:45;10.25;;;5.10;;
75400;SDS011;63974;47.538;18.972;2024-02-04T00:08:48;10.00;;;4.93;;
75400;SDS011;63974;47.538;18.972;2024-02-04T00:11:51;8.20;;;4.20;;
75400;SDS011;63974;47.538;18.972;2024-02-04T00:14:54;7.78;;;4.18;;
75400;SDS011;63974;47.538;18.972;2024-02-04T00:17:56;9.05;;;4.57;;
75400;SDS011;63974;47.538;18.972;2024-02-04T00:20:59;7.80;;;4.43;;
75400;SDS011;63974;47.538;18.972;2024-02-04T00:24:02;8.32;;;4.97;;
75400;SDS011;63974;47.538;18.972;2024-02-04T00:27:05;7.90;;;4.47;;
75400;SDS011;63974;47.538;18.972;2024-02-04T00:30:07;9.07;;;4.40;;
75400;SDS011;63974;47.538;18.972;2024-02-04T00:33:10;8.68;;;4.85;;
75400;SDS011;63974;47.538;18.972;2024-02-04T00:36:13;7.50;;;4.35;;
75400;SDS011;63974;47.538;18.972;2024-02-04T00:39:16;8.13;;;5.00;;
75400;SDS011;63974;47.538;18.972;2024-02-04T00:42:18;9.90;;;5.13;;
75400;SDS011;63974;47.538;18.972;2024-02-04T00:45:21;8.07;;;4.47;;
75400;SDS011;63974;47.538;18.972;2024-02-04T00:48:24;7.63;;;4.65;;
75400;SDS011;63974;47.538;18.972;2024-02-04T00:51:27;12.75;;;4.90;;
75400;SDS011;63974;47.538;18.972;2024-02-04T00:54:30;9.23;;;5.13;;
75400;SDS011;63974;47.538;18.972;2024-02-04T00:57:32;8.13;;;4.43;;
75400;SDS011;63974;47.538;18.972;2024-02-04T01:00:35;10.95;;;4.95;;
75400;SDS011;63974;47.538;18.972;2024-02-04T01:03:38;10.25;;;5.03;;
75400;SDS011;63974;47.538;18.972;2024-02-04T01:06:41;7.35;;;4.25;;
75400;SDS011;63974;47.538;18.972;2024-02-04T01:10:01;8.63;;;4.82;;
75400;SDS011;63974;47.538;18.972;2024-02-04T01:13:08;10.30;;;4.77;;
75400;SDS011;63974;47.538;18.972;2024-02-04T01:16:11;10.07;;;4.55;;
75400;SDS011;63974;47.538;18.972;2024-02-04T01:19:14;9.13;;;4.60;;
75400;SDS011;63974;47.538;18.972;2024-02-04T01:22:16;9.20;;;4.65;;
75400;SDS011;63974;47.538;18.972;2024-02-04T01:25:19;9.05;;;5.10;;
75400;SDS011;63974;47.538;18.972;2024-02-04T01:28:22;10.00;;;5.37;;
75400;SDS011;63974;47.538;18.972;2024-02-04T01:31:25;10.15;;;4.95;;
75400;SDS011;63974;47.538;18.972;2024-02-04T01:34:27;9.20;;;4.55;;
75400;SDS011;63974;47.538;18.972;2024-02-04T01:37:30;11.23;;;5.13;;
75400;SDS011;63974;47.538;18.972;2024-02-04T01:40:33;8.52;;;4.75;;
75400;SDS011;63974;47.538;18.972;2024-02-04T01:43:36;9.27;;;5.07;;
75400;SDS011;63974;47.538;18.972;2024-02-04T01:46:38;12.32;;;4.50;;
75400;SDS011;63974;47.538;18.972;2024-02-04T01:49:41;9.90;;;5.22;;
75400;SDS011;63974;47.538;18.972;2024-02-04T01:52:46;9.18;;;5.20;;
75400;SDS011;63974;47.538;18.972;2024-02-04T01:55:49;7.78;;;5.03;;
75400;SDS011;63974;47.538;18.972;2024-02-04T01:58:52;6.73;;;4.40;;
75400;SDS011;63974;47.538;18.972;2024-02-04T02:01:56;8.65;;;5.20;;
75400;SDS011;63974;47.538;18.972;2024-02-04T02:05:01;8.32;;;4.40;;
75400;SDS011;63974;47.538;18.972;2024-02-04T02:08:04;8.93;;;5.38;;
75400;SDS011;63974;47.538;18.972;2024-02-04T02:11:10;8.68;;;4.72;;
75400;SDS011;63974;47.538;18.972;2024-02-04T02:14:18;10.97;;;5.13;;
75400;SDS011;63974;47.538;18.972;2024-02-04T02:17:31;11.90;;;5.38;;
75400;SDS011;63974;47.538;18.972;2024-02-04T02:24:10;7.68;;;4.80;;
75400;SDS011;63974;47.538;18.972;2024-02-04T02:27:45;7.80;;;4.07;;
75400;SDS011;63974;47.538;18.972;2024-02-04T02:30:52;8.03;;;4.83;;
75400;SDS011;63974;47.538;18.972;2024-02-04T02:33:55;13.20;;;3.90;;
75400;SDS011;63974;47.538;18.972;2024-02-04T02:37:08;8.65;;;3.83;;
75400;SDS011;63974;47.538;18.972;2024-02-04T02:40:38;7.47;;;4.20;;
75400;SDS011;63974;47.538;18.972;2024-02-04T02:43:41;7.90;;;4.20;;
75400;SDS011;63974;47.538;18.972;2024-02-04T02:46:46;5.70;;;3.60;;
75400;SDS011;63974;47.538;18.972;2024-02-04T02:49:52;8.38;;;4.05;;
75400;SDS011;63974;47.538;18.972;2024-02-04T02:52:57;7.55;;;3.60;;
75400;SDS011;63974;47.538;18.972;2024-02-04T02:56:00;6.32;;;3.80;;
75400;SDS011;63974;47.538;18.972;2024-02-04T02:59:03;6.13;;;3.90;;
75400;SDS011;63974;47.538;18.972;2024-02-04T03:02:06;7.30;;;4.33;;
75400;SDS011;63974;47.538;18.972;2024-02-04T03:05:08;7.72;;;4.13;;
75400;SDS011;63974;47.538;18.972;2024-02-04T03:08:12;6.88;;;4.05;;
75400;SDS011;63974;47.538;18.972;2024-02-04T03:11:14;6.25;;;4.05;;
75400;SDS011;63974;47.538;18.972;2024-02-04T03:14:17;6.65;;;4.30;;
75400;SDS011;63974;47.538;18.972;2024-02-04T03:17:20;8.40;;;4.20;;
75400;SDS011;63974;47.538;18.972;2024-02-04T03:20:26;8.90;;;5.28;;
75400;SDS011;63974;47.538;18.972;2024-02-04T03:23:29;10.10;;;5.22;;
75400;SDS011;63974;47.538;18.972;2024-02-04T03:26:32;8.70;;;4.70;;
75400;SDS011;63974;47.538;18.972;2024-02-04T03:29:34;9.52;;;4.85;;
75400;SDS011;63974;47.538;18.972;2024-02-04T03:32:37;6.67;;;4.37;;
75400;SDS011;63974;47.538;18.972;2024-02-04T03:35:40;8.15;;;4.45;;
75400;SDS011;63974;47.538;18.972;2024-02-04T03:38:43;12.35;;;4.55;;
75400;SDS011;63974;47.538;18.972;2024-02-04T03:41:46;7.18;;;4.25;;
75400;SDS011;63974;47.538;18.972;2024-02-04T03:44:48;8.93;;;4.40;;
75400;SDS011;63974;47.538;18.972;2024-02-04T03:47:51;7.33;;;4.20;;
75400;SDS011;63974;47.538;18.972;2024-02-04T03:50:54;12.60;;;5.00;;
75400;SDS011;63974;47.538;18.972;2024-02-04T03:53:57;10.15;;;5.90;;
75400;SDS011;63974;47.538;18.972;2024-02-04T03:57:00;14.07;;;6.70;;
75400;SDS011;63974;47.538;18.972;2024-02-04T04:00:02;14.02;;;7.15;;
75400;SDS011;63974;47.538;18.972;2024-02-04T04:03:12;11.90;;;6.33;;
75400;SDS011;63974;47.538;18.972;2024-02-04T04:06:15;12.32;;;6.00;;
75400;SDS011;63974;47.538;18.972;2024-02-04T04:09:18;10.70;;;6.63;;
75400;SDS011;63974;47.538;18.972;2024-02-04T04:12:21;10.68;;;6.22;;
75400;SDS011;63974;47.538;18.972;2024-02-04T04:15:26;14.00;;;7.10;;
75400;SDS011;63974;47.538;18.972;2024-02-04T04:18:29;11.40;;;6.03;;
75400;SDS011;63974;47.538;18.972;2024-02-04T04:21:32;13.90;;;6.57;;
75400;SDS011;63974;47.538;18.972;2024-02-04T04:24:35;12.73;;;7.10;;
75400;SDS011;63974;47.538;18.972;2024-02-04T04:27:38;11.23;;;6.45;;
75400;SDS011;63974;47.538;18.972;2024-02-04T04:30:41;13.68;;;6.78;;
75400;SDS011;63974;47.538;18.972;2024-02-04T04:33:43;12.90;;;6.53;;
75400;SDS011;63974;47.538;18.972;2024-02-04T04:36:46;10.93;;;6.30;;
75400;SDS011;63974;47.538;18.972;2024-02-04T04:39:49;10.82;;;6.07;;
75400;SDS011;63974;47.538;18.972;2024-02-04T04:42:52;12.48;;;7.38;;
75400;SDS011;63974;47.538;18.972;2024-02-04T04:45:54;11.23;;;6.78;;
75400;SDS011;63974;47.538;18.972;2024-02-04T04:48:57;12.83;;;7.23;;
75400;SDS011;63974;47.538;18.972;2024-02-04T04:52:01;12.15;;;6.30;;
75400;SDS011;63974;47.538;18.972;2024-02-04T04:55:03;12.70;;;5.65;;
75400;SDS011;63974;47.538;18.972;2024-02-04T04:58:07;11.43;;;6.13;;
75400;SDS011;63974;47.538;18.972;2024-02-04T05:01:10;10.48;;;5.55;;
75400;SDS011;63974;47.538;18.972;2024-02-04T05:04:13;17.87;;;8.30;;
75400;SDS011;63974;47.538;18.972;2024-02-04T05:07:16;9.35;;;5.25;;
75400;SDS011;63974;47.538;18.972;2024-02-04T05:10:19;8.10;;;4.93;;
75400;SDS011;63974;47.538;18.972;2024-02-04T05:13:22;11.05;;;5.68;;
75400;SDS011;63974;47.538;18.972;2024-02-04T05:16:25;11.60;;;5.95;;
75400;SDS011;63974;47.538;18.972;2024-02-04T05:19:27;24.57;;;8.33;;
75400;SDS011;63974;47.538;18.972;2024-02-04T05:22:30;17.27;;;6.65;;
75400;SDS011;63974;47.538;18.972;2024-02-04T05:25:33;15.10;;;5.85;;
75400;SDS011;63974;47.538;18.972;2024-02-04T05:28:36;9.00;;;5.40;;
75400;SDS011;63974;47.538;18.972;2024-02-04T05:31:41;9.77;;;5.82;;
75400;SDS011;63974;47.538;18.972;2024-02-04T05:34:45;16.13;;;6.50;;
75400;SDS011;63974;47.538;18.972;2024-02-04T05:37:48;13.15;;;6.18;;
75400;SDS011;63974;47.538;18.972;2024-02-04T05:40:51;16.48;;;6.80;;
75400;SDS011;63974;47.538;18.972;2024-02-04T05:43:53;17.80;;;8.38;;
75400;SDS011;63974;47.538;18.972;2024-02-04T05:46:56;21.02;;;8.48;;
75400;SDS011;63974;47.538;18.972;2024-02-04T05:49:59;13.47;;;6.50;;
75400;SDS011;63974;47.538;18.972;2024-02-04T05:53:02;16.92;;;7.22;;
75400;SDS011;63974;47.538;18.972;2024-02-04T05:56:05;14.15;;;8.90;;
75400;SDS011;63974;47.538;18.972;2024-02-04T05:59:08;12.18;;;7.13;;
75400;SDS011;63974;47.538;18.972;2024-02-04T06:02:10;13.68;;;7.95;;
75400;SDS011;63974;47.538;18.972;2024-02-04T06:05:13;18.47;;;10.53;;
75400;SDS011;63974;47.538;18.972;2024-02-04T06:08:16;28.25;;;13.50;;
75400;SDS011;63974;47.538;18.972;2024-02-04T06:11:19;26.30;;;13.63;;
75400;SDS011;63974;47.538;18.972;2024-02-04T06:14:21;20.45;;;10.32;;
75400;SDS011;63974;47.538;18.972;2024-02-04T06:17:24;25.00;;;11.98;;
75400;SDS011;63974;47.538;18.972;2024-02-04T06:20:27;31.33;;;12.67;;
75400;SDS011;63974;47.538;18.972;2024-02-04T06:23:30;28.55;;;12.35;;
75400;SDS011;63974;47.538;18.972;2024-02-04T06:26:32;17.45;;;8.93;;
75400;SDS011;63974;47.538;18.972;2024-02-04T06:29:35;14.00;;;7.18;;
75400;SDS011;63974;47.538;18.972;2024-02-04T06:32:39;16.55;;;9.00;;
75400;SDS011;63974;47.538;18.972;2024-02-04T06:35:42;17.27;;;8.60;;
75400;SDS011;63974;47.538;18.972;2024-02-04T06:38:45;23.08;;;10.48;;
75400;SDS011;63974;47.538;18.972;2024-02-04T06:41:47;16.65;;;8.23;;
75400;SDS011;63974;47.538;18.972;2024-02-04T06:44:50;14.10;;;7.88;;
75400;SDS011;63974;47.538;18.972;2024-02-04T06:47:53;13.68;;;6.80;;
75400;SDS011;63974;47.538;18.972;2024-02-04T06:50:55;14.13;;;6.93;;
75400;SDS011;63974;47.538;18.972;2024-02-04T06:53:58;22.67;;;10.00;;
75400;SDS011;63974;47.538;18.972;2024-02-04T06:57:01;19.55;;;8.68;;
75400;SDS011;63974;47.538;18.972;2024-02-04T07:00:04;23.08;;;9.80;;
75400;SDS011;63974;47.538;18.972;2024-02-04T07:03:08;22.58;;;10.85;;
75400;SDS011;63974;47.538;18.972;2024-02-04T07:06:11;25.73;;;13.13;;
75400;SDS011;63974;47.538;18.972;2024-02-04T07:09:13;20.05;;;9.88;;
75400;SDS011;63974;47.538;18.972;2024-02-04T07:12:16;24.10;;;12.20;;
75400;SDS011;63974;47.538;18.972;2024-02-04T07:15:19;23.63;;;11.85;;
75400;SDS011;63974;47.538;18.972;2024-02-04T07:18:22;19.73;;;9.93;;
75400;SDS011;63974;47.538;18.972;2024-02-04T07:21:25;22.73;;;12.17;;
75400;SDS011;63974;47.538;18.972;2024-02-04T07:24:28;22.48;;;11.98;;
75400;SDS011;63974;47.538;18.972;2024-02-04T07:27:30;32.83;;;16.45;;
75400;SDS011;63974;47.538;18.972;2024-02-04T07:30:33;27.50;;;12.85;;
75400;SDS011;63974;47.538;18.972;2024-02-04T07:33:36;30.65;;;16.40;;
75400;SDS011;63974;47.538;18.972;2024-02-04T07:36:39;32.10;;;18.00;;
75400;SDS011;63974;47.538;18.972;2024-02-04T07:39:42;17.98;;;10.32;;
75400;SDS011;63974;47.538;18.972;2024-02-04T07:42:45;23.77;;;11.65;;
75400;SDS011;63974;47.538;18.972;2024-02-04T07:45:48;21.60;;;11.43;;
75400;SDS011;63974;47.538;18.972;2024-02-04T07:48:51;18.17;;;11.63;;
75400;SDS011;63974;47.538;18.972;2024-02-04T07:51:53;23.30;;;12.33;;
75400;SDS011;63974;47.538;18.972;2024-02-04T07:54:56;29.10;;;15.98;;
75400;SDS011;63974;47.538;18.972;2024-02-04T07:57:59;39.58;;;20.70;;
75400;SDS011;63974;47.538;18.972;2024-02-04T08:01:02;27.70;;;15.55;;
75400;SDS011;63974;47.538;18.972;2024-02-04T08:04:05;35.90;;;19.83;;
75400;SDS011;63974;47.538;18.972;2024-02-04T08:07:11;18.77;;;10.77;;
75400;SDS011;63974;47.538;18.972;2024-02-04T08:10:14;15.65;;;9.07;;
75400;SDS011;63974;47.538;18.972;2024-02-04T08:13:18;14.13;;;6.75;;
75400;SDS011;63974;47.538;18.972;2024-02-04T08:16:21;10.38;;;5.47;;
75400;SDS011;63974;47.538;18.972;2024-02-04T08:19:24;15.15;;;6.88;;
75400;SDS011;63974;47.538;18.972;2024-02-04T08:22:27;14.80;;;6.83;;
75400;SDS011;63974;47.538;18.972;2024-02-04T08:25:29;6.55;;;3.63;;
75400;SDS011;63974;47.538;18.972;2024-02-04T08:28:32;4.32;;;3.00;;
75400;SDS011;63974;47.538;18.972;2024-02-04T08:31:35;4.18;;;2.95;;
75400;SDS011;63974;47.538;18.972;2024-02-04T08:34:38;4.05;;;2.63;;
75400;SDS011;63974;47.538;18.972;2024-02-04T08:37:40;9.63;;;4.17;;
75400;SDS011;63974;47.538;18.972;2024-02-04T08:40:43;5.03;;;3.22;;
75400;SDS011;63974;47.538;18.972;2024-02-04T08:43:46;5.00;;;3.05;;
75400;SDS011;63974;47.538;18.972;2024-02-04T08:46:48;5.15;;;2.00;;
75400;SDS011;63974;47.538;18.972;2024-02-04T08:49:51;2.92;;;1.40;;
75400;SDS011;63974;47.538;18.972;2024-02-04T08:52:58;5.80;;;2.07;;
75400;SDS011;63974;47.538;18.972;2024-02-04T08:56:01;4.78;;;2.15;;
75400;SDS011;63974;47.538;18.972;2024-02-04T08:59:03;2.85;;;1.77;;
75400;SDS011;63974;47.538;18.972;2024-02-04T09:02:08;3.95;;;1.27;;
75400;SDS011;63974;47.538;18.972;2024-02-04T09:05:12;1.08;;;0.82;;
75400;SDS011;63974;47.538;18.972;2024-02-04T09:08:15;2.00;;;1.30;;
75400;SDS011;63974;47.538;18.972;2024-02-04T09:11:18;3.17;;;1.70;;
75400;SDS011;63974;47.538;18.972;2024-02-04T09:14:23;3.83;;;1.80;;
75400;SDS011;63974;47.538;18.972;2024-02-04T09:17:25;2.78;;;1.58;;
75400;SDS011;63974;47.538;18.972;2024-02-04T09:20:28;3.25;;;1.70;;
75400;SDS011;63974;47.538;18.972;2024-02-04T09:23:31;3.93;;;2.30;;
75400;SDS011;63974;47.538;18.972;2024-02-04T09:26:34;10.18;;;4.10;;
75400;SDS011;63974;47.538;18.972;2024-02-04T09:29:36;6.60;;;2.83;;
75400;SDS011;63974;47.538;18.972;2024-02-04T09:32:39;5.50;;;2.50;;
75400;SDS011;63974;47.538;18.972;2024-02-04T09:35:42;5.95;;;2.72;;
75400;SDS011;63974;47.538;18.972;2024-02-04T09:38:47;4.03;;;2.00;;
75400;SDS011;63974;47.538;18.972;2024-02-04T09:41:50;2.33;;;1.30;;
75400;SDS011;63974;47.538;18.972;2024-02-04T09:44:53;3.22;;;1.52;;
75400;SDS011;63974;47.538;18.972;2024-02-04T09:47:56;3.85;;;0.95;;
75400;SDS011;63974;47.538;18.972;2024-02-04T09:51:00;2.13;;;0.90;;
75400;SDS011;63974;47.538;18.972;2024-02-04T09:54:05;1.67;;;0.70;;
75400;SDS011;63974;47.538;18.972;2024-02-04T09:57:09;1.38;;;0.45;;
75400;SDS011;63974;47.538;18.972;2024-02-04T10:00:12;0.47;;;0.10;;
75400;SDS011;63974;47.538;18.972;2024-02-04T10:03:15;0.60;;;0.40;;
75400;SDS011;63974;47.538;18.972;2024-02-04T10:06:18;0.50;;;0.20;;
75400;SDS011;63974;47.538;18.972;2024-02-04T10:09:21;1.03;;;0.33;;
75400;SDS011;63974;47.538;18.972;2024-02-04T10:12:25;1.95;;;0.30;;
75400;SDS011;63974;47.538;18.972;2024-02-04T10:15:31;2.33;;;0.40;;
75400;SDS011;63974;47.538;18.972;2024-02-04T10:18:34;0.75;;;0.45;;
75400;SDS011;63974;47.538;18.972;2024-02-04T10:21:37;1.30;;;0.47;;
75400;SDS011;63974;47.538;18.972;2024-02-04T10:24:40;0.97;;;0.60;;
75400;SDS011;63974;47.538;18.972;2024-02-04T10:27:42;0.93;;;0.50;;
75400;SDS011;63974;47.538;18.972;2024-02-04T10:30:45;3.58;;;1.58;;
75400;SDS011;63974;47.538;18.972;2024-02-04T10:33:49;1.10;;;0.47;;
75400;SDS011;63974;47.538;18.972;2024-02-04T10:36:52;1.15;;;0.40;;
75400;SDS011;63974;47.538;18.972;2024-02-04T10:39:55;1.73;;;0.80;;
75400;SDS011;63974;47.538;18.972;2024-02-04T10:43:03;1.45;;;0.80;;
75400;SDS011;63974;47.538;18.972;2024-02-04T10:46:14;0.85;;;0.50;;
75400;SDS011;63974;47.538;18.972;2024-02-04T10:49:21;0.63;;;0.40;;
75400;SDS011;63974;47.538;18.972;2024-02-04T10:52:27;3.03;;;0.93;;
75400;SDS011;63974;47.538;18.972;2024-02-04T10:55:30;2.67;;;0.97;;
75400;SDS011;63974;47.538;18.972;2024-02-04T10:58:33;1.67;;;0.60;;
75400;SDS011;63974;47.538;18.972;2024-02-04T11:01:38;2.15;;;0.75;;
75400;SDS011;63974;47.538;18.972;2024-02-04T11:04:42;3.05;;;0.75;;
75400;SDS011;63974;47.538;18.972;2024-02-04T11:07:46;0.47;;;0.30;;
75400;SDS011;63974;47.538;18.972;2024-02-04T11:10:50;1.63;;;0.70;;
75400;SDS011;63974;47.538;18.972;2024-02-04T11:13:56;2.15;;;0.85;;
75400;SDS011;63974;47.538;18.972;2024-02-04T11:27:46;1.73;;;0.70;;
75400;SDS011;63974;47.538;18.972;2024-02-04T11:30:49;1.85;;;1.10;;
75400;SDS011;63974;47.538;18.972;2024-02-04T11:33:53;1.10;;;0.60;;
75400;SDS011;63974;47.538;18.972;2024-02-04T11:36:56;4.90;;;2.95;;
75400;SDS011;63974;47.538;18.972;2024-02-04T11:40:03;3.00;;;2.30;;
75400;SDS011;63974;47.538;18.972;2024-02-04T11:43:11;3.40;;;1.93;;
75400;SDS011;63974;47.538;18.972;2024-02-04T11:46:18;1.23;;;0.70;;
75400;SDS011;63974;47.538;18.972;2024-02-04T11:49:24;4.40;;;1.95;;
75400;SDS011;63974;47.538;18.972;2024-02-04T11:52:28;2.75;;;1.38;;
75400;SDS011;63974;47.538;18.972;2024-02-04T11:55:31;2.42;;;1.65;;
75400;SDS011;63974;47.538;18.972;2024-02-04T11:58:34;4.27;;;1.70;;
75400;SDS011;63974;47.538;18.972;2024-02-04T12:01:37;3.10;;;1.58;;
75400;SDS011;63974;47.538;18.972;2024-02-04T12:04:41;3.25;;;1.70;;
75400;SDS011;63974;47.538;18.972;2024-02-04T12:07:45;3.00;;;1.75;;
75400;SDS011;63974;47.538;18.972;2024-02-04T12:10:48;4.00;;;1.77;;
75400;SDS011;63974;47.538;18.972;2024-02-04T12:13:52;3.03;;;1.47;;
75400;SDS011;63974;47.538;18.972;2024-02-04T12:16:55;2.40;;;1.60;;
75400;SDS011;63974;47.538;18.972;2024-02-04T12:19:59;1.67;;;1.40;;
75400;SDS011;63974;47.538;18.972;2024-02-04T12:23:05;1.67;;;1.30;;
75400;SDS011;63974;47.538;18.972;2024-02-04T12:26:09;2.30;;;1.40;;
75400;SDS011;63974;47.538;18.972;2024-02-04T12:29:12;3.47;;;1.43;;
75400;SDS011;63974;47.538;18.972;2024-02-04T12:32:16;3.15;;;1.52;;
75400;SDS011;63974;47.538;18.972;2024-02-04T12:35:21;3.03;;;1.60;;
75400;SDS011;63974;47.538;18.972;2024-02-04T12:38:24;1.88;;;1.10;;
75400;SDS011;63974;47.538;18.972;2024-02-04T12:41:27;1.98;;;1.48;;
75400;SDS011;63974;47.538;18.972;2024-02-04T12:44:32;2.83;;;1.50;;
75400;SDS011;63974;47.538;18.972;2024-02-04T12:47:34;2.75;;;1.60;;
75400;SDS011;63974;47.538;18.972;2024-02-04T12:50:37;4.13;;;2.08;;
75400;SDS011;63974;47.538;18.972;2024-02-04T12:53:40;3.03;;;2.03;;
75400;SDS011;63974;47.538;18.972;2024-02-04T12:56:44;3.08;;;1.80;;
75400;SDS011;63974;47.538;18.972;2024-02-04T12:59:50;3.07;;;2.10;;
75400;SDS011;63974;47.538;18.972;2024-02-04T13:02:53;3.55;;;2.13;;
75400;SDS011;63974;47.538;18.972;2024-02-04T13:05:58;2.97;;;1.83;;
75400;SDS011;63974;47.538;18.972;2024-02-04T13:09:01;6.47;;;1.75;;
75400;SDS011;63974;47.538;18.972;2024-02-04T13:12:04;3.58;;;1.90;;
75400;SDS011;63974;47.538;18.972;2024-02-04T13:15:08;2.93;;;2.10;;
75400;SDS011;63974;47.538;18.972;2024-02-04T13:18:11;3.67;;;2.50;;
75400;SDS011;63974;47.538;18.972;2024-02-04T13:21:17;3.33;;;2.30;;
75400;SDS011;63974;47.538;18.972;2024-02-04T13:24:22;2.70;;;1.70;;
75400;SDS011;63974;47.538;18.972;2024-02-04T13:27:25;3.28;;;1.90;;
75400;SDS011;63974;47.538;18.972;2024-02-04T13:30:27;5.43;;;3.00;;
75400;SDS011;63974;47.538;18.972;2024-02-04T13:33:30;3.55;;;2.10;;
75400;SDS011;63974;47.538;18.972;2024-02-04T13:36:33;5.13;;;2.85;;
75400;SDS011;63974;47.538;18.972;2024-02-04T13:39:36;3.70;;;2.17;;
75400;SDS011;63974;47.538;18.972;2024-02-04T13:42:39;3.30;;;2.30;;
75400;SDS011;63974;47.538;18.972;2024-02-04T13:45:42;3.07;;;2.13;;
75400;SDS011;63974;47.538;18.972;2024-02-04T13:48:44;3.60;;;2.33;;
75400;SDS011;63974;47.538;18.972;2024-02-04T13:51:48;3.05;;;1.95;;
75400;SDS011;63974;47.538;18.972;2024-02-04T13:54:51;3.78;;;2.40;;
75400;SDS011;63974;47.538;18.972;2024-02-04T13:57:54;3.10;;;2.00;;
75400;SDS011;63974;47.538;18.972;2024-02-04T14:00:56;3.03;;;2.23;;
75400;SDS011;63974;47.538;18.972;2024-02-04T14:04:00;3.45;;;2.25;;
75400;SDS011;63974;47.538;18.972;2024-02-04T14:07:03;4.80;;;3.10;;
75400;SDS011;63974;47.538;18.972;2024-02-04T14:10:06;4.75;;;2.80;;
75400;SDS011;63974;47.538;18.972;2024-02-04T14:13:10;5.65;;;3.47;;
75400;SDS011;63974;47.538;18.972;2024-02-04T14:16:14;5.17;;;3.10;;
75400;SDS011;63974;47.538;18.972;2024-02-04T14:19:17;6.07;;;3.33;;
75400;SDS011;63974;47.538;18.972;2024-02-04T14:22:20;6.60;;;2.95;;
75400;SDS011;63974;47.538;18.972;2024-02-04T14:25:24;5.00;;;3.33;;
75400;SDS011;63974;47.538;18.972;2024-02-04T14:28:31;5.70;;;3.40;;
75400;SDS011;63974;47.538;18.972;2024-02-04T14:31:36;5.30;;;3.57;;
75400;SDS011;63974;47.538;18.972;2024-02-04T14:34:39;4.20;;;2.92;;
75400;SDS011;63974;47.538;18.972;2024-02-04T14:37:42;5.00;;;2.83;;
75400;SDS011;63974;47.538;18.972;2024-02-04T14:40:45;6.22;;;3.40;;
75400;SDS011;63974;47.538;18.972;2024-02-04T14:43:48;5.30;;;2.75;;
75400;SDS011;63974;47.538;18.972;2024-02-04T14:46:51;3.80;;;2.67;;
75400;SDS011;63974;47.538;18.972;2024-02-04T14:49:57;6.15;;;3.70;;
75400;SDS011;63974;47.538;18.972;2024-02-04T14:53:00;4.35;;;2.70;;
75400;SDS011;63974;47.538;18.972;2024-02-04T14:56:02;5.20;;;3.08;;
75400;SDS011;63974;47.538;18.972;2024-02-04T14:59:06;5.13;;;3.00;;
75400;SDS011;63974;47.538;18.972;2024-02-04T15:02:24;5.97;;;3.40;;
75400;SDS011;63974;47.538;18.972;2024-02-04T15:05:26;5.85;;;3.85;;
75400;SDS011;63974;47.538;18.972;2024-02-04T15:08:29;9.07;;;4.00;;
75400;SDS011;63974;47.538;18.972;2024-02-04T15:11:33;5.05;;;3.03;;
75400;SDS011;63974;47.538;18.972;2024-02-04T15:14:36;6.13;;;3.30;;
75400;SDS011;63974;47.538;18.972;2024-02-04T15:17:40;6.20;;;3.90;;
75400;SDS011;63974;47.538;18.972;2024-02-04T15:20:43;6.10;;;3.88;;
75400;SDS011;63974;47.538;18.972;2024-02-04T15:23:46;5.25;;;3.88;;
75400;SDS011;63974;47.538;18.972;2024-02-04T15:26:49;8.68;;;4.32;;
75400;SDS011;63974;47.538;18.972;2024-02-04T15:29:54;9.35;;;4.80;;
75400;SDS011;63974;47.538;18.972;2024-02-04T15:32:58;5.10;;;3.23;;
75400;SDS011;63974;47.538;18.972;2024-02-04T15:36:01;4.97;;;3.50;;
75400;SDS011;63974;47.538;18.972;2024-02-04T15:39:04;5.13;;;3.53;;
75400;SDS011;63974;47.538;18.972;2024-02-04T15:42:07;5.82;;;3.25;;
75400;SDS011;63974;47.538;18.972;2024-02-04T15:45:10;5.65;;;3.22;;
75400;SDS011;63974;47.538;18.972;2024-02-04T15:48:17;5.80;;;2.83;;
75400;SDS011;63974;47.538;18.972;2024-02-04T15:51:21;5.18;;;3.45;;
75400;SDS011;63974;47.538;18.972;2024-02-04T15:54:25;5.43;;;3.25;;
75400;SDS011;63974;47.538;18.972;2024-02-04T15:57:31;6.25;;;3.33;;
75400;SDS011;63974;47.538;18.972;2024-02-04T16:00:36;4.95;;;3.33;;
75400;SDS011;63974;47.538;18.972;2024-02-04T16:03:39;5.97;;;3.50;;
75400;SDS011;63974;47.538;18.972;2024-02-04T16:06:42;6.30;;;3.13;;
75400;SDS011;63974;47.538;18.972;2024-02-04T16:09:46;6.28;;;4.03;;
75400;SDS011;63974;47.538;18.972;2024-02-04T16:12:57;7.80;;;4.55;;
75400;SDS011;63974;47.538;18.972;2024-02-04T16:16:02;11.38;;;6.32;;
75400;SDS011;63974;47.538;18.972;2024-02-04T16:19:07;10.40;;;5.57;;
75400;SDS011;63974;47.538;18.972;2024-02-04T16:22:11;9.30;;;5.20;;
75400;SDS011;63974;47.538;18.972;2024-02-04T16:25:15;7.43;;;4.30;;
75400;SDS011;63974;47.538;18.972;2024-02-04T16:28:19;12.25;;;6.35;;
75400;SDS011;63974;47.538;18.972;2024-02-04T16:31:22;9.43;;;6.03;;
75400;SDS011;63974;47.538;18.972;2024-02-04T16:34:25;11.97;;;7.90;;
75400;SDS011;63974;47.538;18.972;2024-02-04T16:37:28;14.00;;;7.15;;
75400;SDS011;63974;47.538;18.972;2024-02-04T16:40:31;13.05;;;6.65;;
75400;SDS011;63974;47.538;18.972;2024-02-04T16:43:34;11.27;;;6.47;;
75400;SDS011;63974;47.538;18.972;2024-02-04T16:46:38;45.10;;;17.85;;
75400;SDS011;63974;47.538;18.972;2024-02-04T16:49:41;26.87;;;11.63;;
75400;SDS011;63974;47.538;18.972;2024-02-04T16:52:45;14.07;;;7.72;;
75400;SDS011;63974;47.538;18.972;2024-02-04T16:55:49;15.20;;;8.40;;
75400;SDS011;63974;47.538;18.972;2024-02-04T16:58:52;17.02;;;9.50;;
75400;SDS011;63974;47.538;18.972;2024-02-04T17:01:55;15.15;;;8.20;;
75400;SDS011;63974;47.538;18.972;2024-02-04T17:04:58;17.00;;;9.03;;
75400;SDS011;63974;47.538;18.972;2024-02-04T17:08:02;16.08;;;8.73;;
75400;SDS011;63974;47.538;18.972;2024-02-04T17:11:06;14.73;;;8.20;;
75400;SDS011;63974;47.538;18.972;2024-02-04T17:14:11;11.48;;;7.35;;
75400;SDS011;63974;47.538;18.972;2024-02-04T17:17:16;14.38;;;8.18;;
75400;SDS011;63974;47.538;18.972;2024-02-04T17:20:21;13.57;;;8.07;;
75400;SDS011;63974;47.538;18.972;2024-02-04T17:23:29;12.05;;;7.78;;
75400;SDS011;63974;47.538;18.972;2024-02-04T17:26:35;13.52;;;8.48;;
75400;SDS011;63974;47.538;18.972;2024-02-04T17:29:38;12.55;;;7.20;;
75400;SDS011;63974;47.538;18.972;2024-02-04T17:32:42;12.95;;;6.68;;
75400;SDS011;63974;47.538;18.972;2024-02-04T17:35:47;10.47;;;5.40;;
75400;SDS011;63974;47.538;18.972;2024-02-04T17:38:51;12.55;;;5.53;;
75400;SDS011;63974;47.538;18.972;2024-02-04T17:41:54;9.23;;;5.25;;
75400;SDS011;63974;47.538;18.972;2024-02-04T17:44:58;9.95;;;5.35;;
75400;SDS011;63974;47.538;18.972;2024-02-04T17:48:00;9.30;;;4.82;;
75400;SDS011;63974;47.538;18.972;2024-02-04T17:51:03;11.83;;;5.93;;
75400;SDS011;63974;47.538;18.972;2024-02-04T17:54:19;9.95;;;5.68;;
75400;SDS011;63974;47.538;18.972;2024-02-04T17:57:22;10.77;;;6.00;;
75400;SDS011;63974;47.538;18.972;2024-02-04T18:00:25;12.90;;;6.88;;
75400;SDS011;63974;47.538;18.972;2024-02-04T18:03:27;14.18;;;7.05;;
75400;SDS011;63974;47.538;18.972;2024-02-04T18:06:38;14.90;;;6.33;;
75400;SDS011;63974;47.538;18.972;2024-02-04T18:09:42;15.07;;;7.47;;
75400;SDS011;63974;47.538;18.972;2024-02-04T18:12:45;22.00;;;10.40;;
75400;SDS011;63974;47.538;18.972;2024-02-04T18:15:48;24.08;;;14.30;;
75400;SDS011;63974;47.538;18.972;2024-02-04T18:18:56;27.58;;;13.93;;